createdAt,value
2019-05-29T00:00:10.245Z,2.20
2019-05-29T00:02:38.742Z,1.90
2019-05-29T00:05:08.057Z,2.10
2019-05-29T00:07:36.573Z,1.80
2019-05-29T00:10:06.580Z,2.47
2019-05-29T00:12:35.185Z,2.13
2019-05-29T00:15:03.865Z,2.37
2019-05-29T00:17:32.332Z,2.17
2019-05-29T00:20:00.902Z,2.27
2019-05-29T00:22:29.433Z,2.40
2019-05-29T00:24:57.908Z,2.40
2019-05-29T00:27:26.475Z,2.73
2019-05-29T00:29:55.073Z,3.10
2019-05-29T00:32:23.554Z,2.40
2019-05-29T00:34:52.268Z,2.13
2019-05-29T00:37:20.798Z,2.37
2019-05-29T00:39:49.346Z,2.47
2019-05-29T00:42:17.915Z,2.40
2019-05-29T00:44:46.454Z,2.40
2019-05-29T00:47:15.711Z,2.70
2019-05-29T00:49:44.337Z,2.10
2019-05-29T00:52:14.176Z,2.50
2019-05-29T00:54:43.051Z,2.20
2019-05-29T00:57:12.853Z,2.70
2019-05-29T00:59:41.558Z,2.30
2019-05-29T01:02:10.027Z,2.20
2019-05-29T01:04:39.502Z,2.87
2019-05-29T01:07:08.051Z,2.10
2019-05-29T01:09:36.581Z,2.00
2019-05-29T01:12:05.320Z,2.17
2019-05-29T01:14:48.857Z,2.30
2019-05-29T01:17:04.106Z,2.00
2019-05-29T01:19:32.752Z,2.20
2019-05-29T01:22:03.378Z,2.03
2019-05-29T01:24:31.915Z,2.20
2019-05-29T01:27:00.510Z,2.10
2019-05-29T01:29:29.118Z,2.50
2019-05-29T01:31:57.650Z,2.50
2019-05-29T01:34:26.394Z,2.23
2019-05-29T01:36:54.934Z,2.40
2019-05-29T01:39:23.623Z,2.37
2019-05-29T01:41:52.130Z,2.80
2019-05-29T01:44:21.466Z,2.50
2019-05-29T01:46:50.037Z,2.43
2019-05-29T01:49:19.520Z,2.37
2019-05-29T01:51:48.322Z,2.60
2019-05-29T01:54:17.542Z,2.30
2019-05-29T01:56:46.199Z,2.70
2019-05-29T01:59:15.703Z,2.40
2019-05-29T02:01:44.273Z,2.40
2019-05-29T02:04:12.882Z,2.33
2019-05-29T02:06:41.431Z,3.17
2019-05-29T02:09:10.043Z,2.50
2019-05-29T02:11:38.586Z,3.33
2019-05-29T02:14:07.223Z,2.53
2019-05-29T02:16:35.826Z,2.43
2019-05-29T02:19:04.525Z,2.30
2019-05-29T02:21:33.021Z,2.80
2019-05-29T02:24:01.558Z,2.20
2019-05-29T02:26:30.178Z,2.60
2019-05-29T02:28:58.721Z,2.60
2019-05-29T02:31:28.827Z,2.60
2019-05-29T02:33:57.514Z,2.20
2019-05-29T02:36:27.137Z,2.70
2019-05-29T02:38:56.229Z,2.40
2019-05-29T02:41:26.183Z,2.53
2019-05-29T02:43:55.001Z,2.63
2019-05-29T02:46:24.003Z,3.57
2019-05-29T02:48:53.672Z,2.50
2019-05-29T02:51:22.548Z,2.73
2019-05-29T02:53:52.391Z,2.87
2019-05-29T02:56:22.748Z,2.50
2019-05-29T02:58:52.236Z,2.83
2019-05-29T03:01:21.504Z,2.80
2019-05-29T03:03:50.694Z,2.80
2019-05-29T03:06:19.378Z,2.80
2019-05-29T03:08:47.992Z,3.53
2019-05-29T03:11:16.536Z,3.30
2019-05-29T03:13:45.508Z,3.03
2019-05-29T03:16:14.054Z,2.90
2019-05-29T03:18:42.622Z,3.17
2019-05-29T03:21:11.166Z,2.80
2019-05-29T03:23:39.722Z,2.97
2019-05-29T03:26:08.414Z,2.83
2019-05-29T03:28:38.311Z,2.37
2019-05-29T03:31:07.120Z,2.43
2019-05-29T03:33:47.117Z,2.50
2019-05-29T03:36:06.048Z,2.70
2019-05-29T03:38:35.047Z,3.03
2019-05-29T03:41:03.762Z,2.97
2019-05-29T03:43:34.967Z,2.77
2019-05-29T03:46:02.628Z,2.67
2019-05-29T03:48:32.390Z,2.70
2019-05-29T03:51:01.853Z,2.50
2019-05-29T03:53:31.693Z,2.50
2019-05-29T03:56:00.606Z,3.07
2019-05-29T03:58:30.840Z,2.70
2019-05-29T04:00:59.298Z,2.60
2019-05-29T04:03:28.962Z,2.67
2019-05-29T04:05:57.651Z,2.33
2019-05-29T04:08:27.422Z,2.83
2019-05-29T04:10:56.850Z,3.40
2019-05-29T04:13:27.260Z,2.73
2019-05-29T04:15:57.133Z,2.83
2019-05-29T04:18:27.614Z,2.60
2019-05-29T04:20:56.994Z,2.70
2019-05-29T04:23:29.942Z,2.87
2019-05-29T04:26:00.177Z,2.57
2019-05-29T04:28:30.380Z,2.60
2019-05-29T04:30:59.534Z,2.70
2019-05-29T04:33:28.196Z,2.50
2019-05-29T04:35:56.714Z,3.03
2019-05-29T04:38:25.332Z,2.87
2019-05-29T04:40:53.866Z,2.80
2019-05-29T04:43:22.479Z,2.70
2019-05-29T04:45:51.082Z,2.67
2019-05-29T04:48:19.628Z,3.00
2019-05-29T04:50:48.172Z,2.97
2019-05-29T04:53:16.809Z,2.67
2019-05-29T04:55:45.350Z,2.67
2019-05-29T04:58:13.893Z,2.50
2019-05-29T05:00:58.207Z,2.50
2019-05-29T05:03:12.586Z,2.93
2019-05-29T05:05:41.125Z,2.50
2019-05-29T05:08:09.706Z,2.93
2019-05-29T05:10:40.963Z,2.90
2019-05-29T05:13:09.950Z,2.47
2019-05-29T05:15:39.977Z,2.43
2019-05-29T05:18:08.944Z,3.20
2019-05-29T05:20:38.363Z,2.70
2019-05-29T05:23:07.143Z,2.70
2019-05-29T05:25:36.354Z,2.90
2019-05-29T05:28:05.492Z,2.93
2019-05-29T05:30:34.386Z,2.27
2019-05-29T05:33:03.113Z,3.00
2019-05-29T05:35:32.610Z,2.67
2019-05-29T05:38:02.683Z,2.33
2019-05-29T05:40:31.291Z,2.23
2019-05-29T05:42:59.833Z,2.70
2019-05-29T05:45:28.409Z,2.10
2019-05-29T05:47:58.086Z,2.87
2019-05-29T05:50:27.007Z,2.07
2019-05-29T05:52:55.642Z,2.40
2019-05-29T05:55:24.260Z,2.47
2019-05-29T05:57:52.835Z,2.30
2019-05-29T06:00:32.134Z,2.50
2019-05-29T06:03:00.820Z,2.40
2019-05-29T06:05:29.505Z,2.97
2019-05-29T06:07:58.125Z,2.60
2019-05-29T06:10:26.829Z,2.43
2019-05-29T06:12:55.359Z,2.50
2019-05-29T06:15:23.898Z,2.43
2019-05-29T06:18:17.150Z,2.40
2019-05-29T06:20:22.861Z,2.60
2019-05-29T06:22:51.488Z,2.20
2019-05-29T06:25:20.202Z,2.20
2019-05-29T06:27:48.749Z,2.37
2019-05-29T06:30:17.553Z,2.37
2019-05-29T06:32:46.263Z,1.77
2019-05-29T06:35:16.053Z,1.93
2019-05-29T06:37:44.598Z,1.72
2019-05-29T06:40:15.199Z,1.80
2019-05-29T06:42:43.982Z,1.60
2019-05-29T06:45:13.511Z,1.85
2019-05-29T06:47:42.799Z,1.52
2019-05-29T06:50:12.049Z,1.60
2019-05-29T06:52:41.422Z,1.40
2019-05-29T06:55:10.096Z,1.67
2019-05-29T06:57:40.127Z,1.42
2019-05-29T07:00:09.098Z,1.50
2019-05-29T07:02:38.483Z,2.15
2019-05-29T07:05:07.197Z,1.27
2019-05-29T07:07:36.088Z,1.40
2019-05-29T07:10:06.563Z,1.98
2019-05-29T07:12:36.227Z,1.50
2019-05-29T07:15:09.308Z,1.62
2019-05-29T07:17:38.575Z,1.73
2019-05-29T07:20:07.706Z,1.67
2019-05-29T07:22:36.978Z,1.80
2019-05-29T07:25:06.755Z,1.60
2019-05-29T07:27:36.705Z,2.00
2019-05-29T07:30:06.563Z,1.70
2019-05-29T07:32:35.107Z,1.70
2019-05-29T07:35:04.692Z,1.50
2019-05-29T07:37:33.359Z,1.60
2019-05-29T07:40:01.919Z,1.50
2019-05-29T07:42:30.559Z,1.93
2019-05-29T07:44:59.171Z,1.87
2019-05-29T07:47:27.790Z,1.50
2019-05-29T07:49:56.348Z,1.67
2019-05-29T07:52:24.901Z,1.50
2019-05-29T07:54:53.526Z,2.00
2019-05-29T07:57:22.203Z,1.60
2019-05-29T07:59:50.784Z,1.83
2019-05-29T08:02:19.492Z,2.03
2019-05-29T08:04:49.699Z,1.53
2019-05-29T08:07:18.466Z,1.43
2019-05-29T08:09:47.861Z,1.60
2019-05-29T08:12:16.459Z,1.37
2019-05-29T08:14:45.801Z,1.27
2019-05-29T08:17:14.471Z,1.60
2019-05-29T08:19:59.336Z,1.53
2019-05-29T08:22:13.367Z,1.33
2019-05-29T08:24:42.627Z,1.03
2019-05-29T08:27:11.270Z,1.23
2019-05-29T08:29:40.602Z,1.37
2019-05-29T08:32:09.239Z,1.37
2019-05-29T08:34:37.777Z,1.40
2019-05-29T08:37:07.594Z,1.40
2019-05-29T08:39:37.084Z,1.30
2019-05-29T08:42:22.481Z,1.30
2019-05-29T08:44:36.166Z,1.60
2019-05-29T08:47:10.508Z,1.37
2019-05-29T08:49:35.033Z,1.40
2019-05-29T08:52:11.587Z,1.30
2019-05-29T08:54:33.867Z,1.37
2019-05-29T08:57:02.407Z,1.20
2019-05-29T08:59:31.047Z,1.20
2019-05-29T09:01:59.663Z,1.40
2019-05-29T09:04:28.656Z,1.37
2019-05-29T09:06:57.312Z,1.17
2019-05-29T09:09:25.924Z,2.00
2019-05-29T09:11:54.615Z,1.17
2019-05-29T09:14:23.214Z,1.20
2019-05-29T09:16:51.866Z,1.20
2019-05-29T09:19:21.131Z,1.17
2019-05-29T09:21:50.270Z,1.40
2019-05-29T09:24:19.410Z,1.53
2019-05-29T09:26:47.918Z,1.37
2019-05-29T09:29:18.691Z,1.20
2019-05-29T09:31:46.678Z,1.20
2019-05-29T09:34:16.421Z,1.10
2019-05-29T09:36:45.273Z,1.33
2019-05-29T09:39:16.188Z,1.37
2019-05-29T09:41:44.147Z,1.40
2019-05-29T09:44:28.105Z,1.20
2019-05-29T09:46:42.863Z,1.47
2019-05-29T09:49:11.405Z,1.30
2019-05-29T09:51:39.910Z,1.67
2019-05-29T09:54:08.572Z,1.43
2019-05-29T09:56:37.142Z,1.20
2019-05-29T09:59:05.800Z,1.30
2019-05-29T10:01:34.413Z,1.30
2019-05-29T10:04:05.783Z,1.53
2019-05-29T10:06:33.260Z,1.20
2019-05-29T10:09:01.942Z,1.20
2019-05-29T10:11:30.497Z,1.23
2019-05-29T10:14:00.438Z,1.43
2019-05-29T10:16:29.105Z,1.30
2019-05-29T10:18:59.729Z,1.30
2019-05-29T10:21:39.444Z,2.03
2019-05-29T10:23:59.536Z,1.50
2019-05-29T10:26:28.287Z,1.57
2019-05-29T10:29:07.981Z,1.70
2019-05-29T10:31:27.110Z,1.53
2019-05-29T10:33:55.803Z,1.40
2019-05-29T10:36:24.480Z,1.63
2019-05-29T10:38:53.089Z,1.40
2019-05-29T10:41:21.715Z,1.70
2019-05-29T10:43:51.292Z,1.50
2019-05-29T10:46:20.141Z,1.70
2019-05-29T10:48:51.037Z,2.27
2019-05-29T10:51:18.966Z,1.50
2019-05-29T10:53:49.600Z,1.63
2019-05-29T10:56:21.073Z,1.40
2019-05-29T10:58:53.609Z,1.50
2019-05-29T11:01:18.234Z,1.10
2019-05-29T11:03:47.258Z,1.37
2019-05-29T11:06:15.978Z,1.30
2019-05-29T11:08:45.794Z,1.10
2019-05-29T11:11:14.358Z,1.20
2019-05-29T11:13:42.916Z,1.00
2019-05-29T11:16:11.466Z,1.33
2019-05-29T11:18:40.193Z,1.20
2019-05-29T11:21:09.102Z,1.20
2019-05-29T11:23:37.639Z,1.40
2019-05-29T11:26:06.317Z,1.00
2019-05-29T11:28:35.058Z,1.30
2019-05-29T11:31:06.108Z,1.47
2019-05-29T11:33:33.918Z,0.80
2019-05-29T11:36:12.216Z,0.93
2019-05-29T11:38:32.573Z,0.93
2019-05-29T11:41:24.696Z,1.03
2019-05-29T11:43:31.546Z,1.20
2019-05-29T11:46:01.793Z,1.10
2019-05-29T11:48:30.528Z,1.20
2019-05-29T11:50:59.069Z,1.10
2019-05-29T11:53:27.613Z,1.10
2019-05-29T11:55:56.212Z,0.90
2019-05-29T11:58:31.240Z,1.20
2019-05-29T12:00:55.345Z,1.00
2019-05-29T12:03:23.942Z,1.20
2019-05-29T12:05:53.490Z,1.13
2019-05-29T12:08:22.185Z,1.00
2019-05-29T12:10:51.267Z,1.17
2019-05-29T12:13:19.874Z,0.70
2019-05-29T12:15:48.581Z,1.12
2019-05-29T12:18:23.614Z,1.27
2019-05-29T12:20:47.392Z,0.93
2019-05-29T12:23:25.658Z,0.98
2019-05-29T12:25:46.359Z,0.80
2019-05-29T12:28:14.973Z,0.98
2019-05-29T12:30:43.662Z,1.00
2019-05-29T12:33:12.200Z,1.10
2019-05-29T12:35:40.770Z,0.75
2019-05-29T12:38:09.381Z,0.90
2019-05-29T12:40:37.994Z,1.10
2019-05-29T12:43:06.700Z,1.10
2019-05-29T12:45:35.378Z,1.03
2019-05-29T12:48:11.198Z,1.20
2019-05-29T12:50:34.880Z,1.00
2019-05-29T12:53:03.942Z,1.57
2019-05-29T12:55:32.566Z,1.20
2019-05-29T12:58:02.320Z,1.20
2019-05-29T13:00:31.095Z,1.30
2019-05-29T13:03:00.784Z,1.20
2019-05-29T13:05:29.602Z,1.10
2019-05-29T13:07:58.864Z,1.00
2019-05-29T13:10:30.908Z,1.10
2019-05-29T13:13:04.274Z,0.93
2019-05-29T13:15:28.926Z,1.03
2019-05-29T13:18:02.694Z,1.23
2019-05-29T13:20:27.725Z,0.97
2019-05-29T13:22:57.704Z,0.90
2019-05-29T13:25:26.345Z,0.90
2019-05-29T13:27:58.989Z,1.00
2019-05-29T13:30:26.206Z,1.20
2019-05-29T13:32:58.970Z,1.33
2019-05-29T13:35:25.109Z,1.20
2019-05-29T13:37:53.643Z,0.97
2019-05-29T13:40:22.430Z,0.93
2019-05-29T13:42:51.008Z,1.10
2019-05-29T13:45:19.890Z,0.80
2019-05-29T13:47:48.508Z,1.17
2019-05-29T13:50:17.317Z,1.27
2019-05-29T13:52:45.935Z,1.10
2019-05-29T13:55:15.209Z,0.97
2019-05-29T13:57:43.715Z,1.70
2019-05-29T14:00:32.261Z,0.90
2019-05-29T14:02:45.437Z,1.20
2019-05-29T14:05:15.549Z,1.35
2019-05-29T14:07:44.392Z,1.00
2019-05-29T14:10:14.775Z,1.42
2019-05-29T14:12:43.482Z,1.20
2019-05-29T14:15:12.528Z,1.00
2019-05-29T14:17:41.270Z,1.47
2019-05-29T14:20:10.561Z,1.00
2019-05-29T14:22:39.169Z,1.65
2019-05-29T14:25:09.520Z,0.90
2019-05-29T14:27:38.291Z,1.17
2019-05-29T14:30:11.451Z,1.20
2019-05-29T14:32:39.998Z,1.00
2019-05-29T14:35:11.021Z,1.25
2019-05-29T14:37:39.568Z,0.93
2019-05-29T14:40:09.710Z,1.00
2019-05-29T14:42:38.458Z,1.17
2019-05-29T14:45:08.210Z,1.15
2019-05-29T14:47:36.982Z,1.22
2019-05-29T14:50:08.841Z,1.32
2019-05-29T14:52:37.638Z,1.10
2019-05-29T14:55:07.053Z,1.10
2019-05-29T14:57:35.591Z,0.90
2019-05-29T15:00:20.880Z,1.00
2019-05-29T15:02:40.306Z,0.90
2019-05-29T15:05:09.769Z,1.20
2019-05-29T15:07:38.590Z,1.22
2019-05-29T15:10:19.749Z,1.37
2019-05-29T15:12:38.936Z,0.98
2019-05-29T15:15:08.926Z,1.02
2019-05-29T15:17:37.807Z,1.10
2019-05-29T15:20:10.410Z,1.47
2019-05-29T15:22:40.133Z,1.37
2019-05-29T15:25:18.469Z,1.17
2019-05-29T15:27:40.081Z,1.00
2019-05-29T15:32:35.629Z,1.10
2019-05-29T15:35:06.507Z,1.27
2019-05-29T15:37:35.249Z,1.10
2019-05-29T15:40:08.777Z,1.45
2019-05-29T15:42:37.573Z,1.13
2019-05-29T15:45:11.847Z,1.03
2019-05-29T15:47:40.418Z,1.10
2019-05-29T15:50:11.359Z,1.20
2019-05-29T15:52:40.447Z,0.93
2019-05-29T15:55:27.399Z,1.03
2019-05-29T15:57:40.149Z,1.07
2019-05-29T16:00:11.194Z,1.10
2019-05-29T16:02:40.413Z,1.10
2019-05-29T16:05:11.180Z,1.60
2019-05-29T16:07:39.921Z,1.50
2019-05-29T16:10:12.363Z,1.05
2019-05-29T16:12:39.565Z,0.87
2019-05-29T16:15:09.219Z,2.20
2019-05-29T16:17:37.780Z,1.00
2019-05-29T16:20:08.629Z,1.30
2019-05-29T16:22:37.146Z,1.03
2019-05-29T16:25:06.922Z,1.00
2019-05-29T16:27:35.536Z,1.53
2019-05-29T16:30:09.659Z,1.10
2019-05-29T16:32:38.342Z,1.20
2019-05-29T16:35:08.086Z,1.20
2019-05-29T16:37:36.832Z,2.03
2019-05-29T16:40:09.952Z,1.70
2019-05-29T16:42:38.549Z,1.17
2019-05-29T16:45:08.578Z,1.07
2019-05-29T16:47:37.114Z,1.37
2019-05-29T16:50:07.665Z,1.30
2019-05-29T16:52:36.346Z,1.17
2019-05-29T16:55:06.266Z,1.20
2019-05-29T16:57:34.909Z,1.40
2019-05-29T17:00:05.158Z,1.20
2019-05-29T17:02:33.839Z,1.10
2019-05-29T17:05:02.707Z,1.30
2019-05-29T17:07:31.320Z,1.00
2019-05-29T17:09:59.862Z,0.97
2019-05-29T17:12:28.510Z,1.13
2019-05-29T17:14:57.183Z,1.07
2019-05-29T17:17:25.802Z,1.30
2019-05-29T17:19:54.437Z,1.27
2019-05-29T17:22:23.024Z,1.30
2019-05-29T17:24:51.634Z,1.20
2019-05-29T17:27:21.280Z,1.23
2019-05-29T17:29:50.061Z,1.00
2019-05-29T17:32:18.918Z,1.00
2019-05-29T17:34:47.648Z,1.30
2019-05-29T17:37:17.102Z,1.60
2019-05-29T17:39:45.784Z,1.13
2019-05-29T17:42:14.392Z,1.30
2019-05-29T17:44:43.065Z,1.00
2019-05-29T17:47:11.677Z,1.23
2019-05-29T17:49:40.313Z,1.10
2019-05-29T17:52:08.933Z,1.40
2019-05-29T17:54:37.477Z,1.50
2019-05-29T17:57:06.100Z,2.33
2019-05-29T17:59:34.694Z,1.80
2019-05-29T18:02:03.482Z,2.80
2019-05-29T18:04:32.098Z,5.17
2019-05-29T18:07:00.615Z,5.97
2019-05-29T18:09:29.353Z,4.67
2019-05-29T18:11:59.023Z,2.43
2019-05-29T18:14:27.658Z,2.03
2019-05-29T18:16:56.266Z,1.50
2019-05-29T18:19:25.895Z,1.97
2019-05-29T18:21:54.502Z,2.97
2019-05-29T18:24:23.775Z,4.00
2019-05-29T18:26:52.518Z,5.30
2019-05-29T18:29:22.251Z,6.20
2019-05-29T18:31:52.451Z,3.87
2019-05-29T18:34:21.030Z,3.90
2019-05-29T18:36:49.664Z,3.07
2019-05-29T18:39:18.281Z,1.80
2019-05-29T18:41:47.421Z,2.00
2019-05-29T18:44:16.003Z,1.93
2019-05-29T18:46:44.546Z,2.10
2019-05-29T18:49:14.679Z,2.17
2019-05-29T18:51:43.599Z,3.10
2019-05-29T18:54:12.283Z,5.13
2019-05-29T18:56:40.882Z,5.47
2019-05-29T18:59:09.487Z,6.07
2019-05-29T19:01:38.100Z,8.03
2019-05-29T19:04:06.775Z,11.17
2019-05-29T19:06:36.992Z,6.97
2019-05-29T19:09:07.756Z,7.57
2019-05-29T19:11:36.377Z,7.73
2019-05-29T19:14:05.622Z,7.73
2019-05-29T19:16:34.264Z,7.37
2019-05-29T19:19:02.900Z,4.17
2019-05-29T19:21:32.558Z,3.70
2019-05-29T19:24:01.176Z,2.80
2019-05-29T19:26:33.678Z,3.00
2019-05-29T19:29:00.290Z,3.40
2019-05-29T19:31:29.161Z,3.63
2019-05-29T19:33:57.701Z,3.80
2019-05-29T19:36:26.218Z,3.60
2019-05-29T19:38:54.753Z,2.97
2019-05-29T19:41:23.914Z,4.13
2019-05-29T19:43:52.694Z,6.60
2019-05-29T19:46:21.302Z,5.17
2019-05-29T19:48:49.858Z,4.87
2019-05-29T19:51:18.418Z,3.60
2019-05-29T19:53:47.031Z,2.83
2019-05-29T19:56:15.730Z,2.40
2019-05-29T19:58:45.913Z,2.37
2019-05-29T20:01:29.754Z,2.20
2019-05-29T20:03:44.750Z,1.63
2019-05-29T20:06:13.285Z,2.07
2019-05-29T20:08:41.837Z,2.40
2019-05-29T20:11:10.528Z,2.50
2019-05-29T20:13:39.211Z,3.57
2019-05-29T20:16:09.047Z,3.30
2019-05-29T20:18:38.515Z,2.80
2019-05-29T20:21:07.271Z,2.07
2019-05-29T20:23:38.958Z,2.13
2019-05-29T20:26:07.497Z,2.17
2019-05-29T20:28:36.360Z,2.40
2019-05-29T20:31:06.733Z,2.40
2019-05-29T20:33:36.584Z,2.00
2019-05-29T20:36:05.290Z,2.50
2019-05-29T20:38:35.002Z,2.67
2019-05-29T20:41:03.658Z,2.30
2019-05-29T20:43:33.392Z,2.20
2019-05-29T20:46:02.071Z,2.73
2019-05-29T20:48:30.634Z,2.70
2019-05-29T20:50:59.151Z,2.70
2019-05-29T20:53:29.772Z,2.30
2019-05-29T20:55:58.310Z,2.13
2019-05-29T20:58:26.988Z,2.00
2019-05-29T21:00:55.650Z,2.20
2019-05-29T21:03:24.185Z,2.07
2019-05-29T21:05:52.726Z,2.40
2019-05-29T21:08:21.338Z,2.43
2019-05-29T21:10:49.879Z,2.43
2019-05-29T21:13:18.440Z,2.10
2019-05-29T21:15:46.901Z,1.80
2019-05-29T21:18:15.438Z,2.20
2019-05-29T21:20:44.596Z,1.97
2019-05-29T21:23:13.257Z,2.03
2019-05-29T21:25:42.815Z,2.50
2019-05-29T21:28:11.470Z,1.90
2019-05-29T21:30:41.964Z,1.80
2019-05-29T21:33:12.221Z,1.73
2019-05-29T21:35:42.120Z,2.10
2019-05-29T21:38:10.745Z,1.80
2019-05-29T21:40:40.324Z,1.80
2019-05-29T21:43:09.027Z,1.70
2019-05-29T21:45:38.658Z,1.80
2019-05-29T21:48:07.274Z,1.67
2019-05-29T21:50:37.039Z,1.90
2019-05-29T21:53:05.852Z,1.80
2019-05-29T21:55:34.400Z,1.53
2019-05-29T21:58:04.163Z,1.70
2019-05-29T22:00:35.592Z,1.60
2019-05-29T22:03:05.085Z,2.17
2019-05-29T22:05:33.726Z,1.90
2019-05-29T22:08:02.411Z,1.90
2019-05-29T22:10:31.019Z,1.90
2019-05-29T22:13:00.682Z,2.00
2019-05-29T22:15:30.791Z,1.80
2019-05-29T22:17:59.401Z,1.80
2019-05-29T22:20:28.040Z,1.80
2019-05-29T22:22:57.196Z,1.60
2019-05-29T22:25:25.829Z,1.63
2019-05-29T22:27:55.592Z,2.10
2019-05-29T22:30:24.302Z,1.90
2019-05-29T22:32:53.257Z,1.70
2019-05-29T22:35:22.019Z,1.70
2019-05-29T22:37:51.527Z,1.80
2019-05-29T22:40:20.353Z,2.07
2019-05-29T22:42:48.826Z,1.70
2019-05-29T22:45:18.549Z,1.70
2019-05-29T22:47:47.298Z,2.03
2019-05-29T22:50:16.712Z,1.70
2019-05-29T22:52:45.472Z,1.90
2019-05-29T22:55:14.935Z,1.67
2019-05-29T22:57:43.615Z,1.80
2019-05-29T23:00:12.492Z,2.03
2019-05-29T23:02:41.101Z,2.03
2019-05-29T23:05:12.184Z,1.80
2019-05-29T23:07:40.735Z,1.90
2019-05-29T23:10:09.713Z,2.20
2019-05-29T23:12:38.593Z,1.83
2019-05-29T23:15:07.414Z,2.10
2019-05-29T23:17:36.011Z,2.07
2019-05-29T23:20:09.205Z,1.93
2019-05-29T23:22:37.922Z,1.93
2019-05-29T23:25:08.833Z,2.20
2019-05-29T23:27:37.391Z,2.03
2019-05-29T23:30:07.670Z,2.43
2019-05-29T23:32:36.289Z,2.00
2019-05-29T23:35:05.904Z,2.10
2019-05-29T23:37:34.430Z,2.20
2019-05-29T23:40:04.837Z,2.27
2019-05-29T23:42:33.448Z,2.23
2019-05-29T23:45:02.126Z,2.00
2019-05-29T23:47:30.695Z,2.10
2019-05-29T23:49:59.729Z,1.83
2019-05-29T23:52:28.425Z,2.10
2019-05-29T23:54:57.949Z,2.20
2019-05-29T23:57:26.497Z,1.90
